IGO5045 VABB-VILH
Flight info
| Callsign | IGO5045 |
|---|---|
| Flight time | N/A |
| Altitude | 35000 |
| Route | ANOLI2A ISRIS Q1 DPN W35 SP W39 LELAX/N0449F360 W39 TUNPU |
| Aircraft | A21N/M-SDE2E3FGHIRWXY/LB1 |
Departure
| Time | 2026-05-08 07:24 |
|---|---|
| Airport | Chhatrapati Shivaji Maharaj International Airport (VABB) |
Arrival
| Time | N/A |
|---|---|
| Airport | Leh Kushok Bakula Rimpochee Airport (VILH) |
| Time | Latitude | Longitude | Altitude | Speed | Heading |
|---|---|---|---|---|---|
| 2026-05-08 07:04 | 19.09324 | 72.87093 | 39 ft | 0 kts | 32° |
| 2026-05-08 07:15 | 19.09314 | 72.87086 | 39 ft | 2 kts | 32° |
| 2026-05-08 07:15 | 19.09302 | 72.87078 | 38 ft | 2 kts | 33° |
| 2026-05-08 07:16 | 19.09289 | 72.87070 | 38 ft | 2 kts | 32° |
| 2026-05-08 07:16 | 19.09277 | 72.87061 | 37 ft | 2 kts | 33° |
| 2026-05-08 07:16 | 19.09265 | 72.87053 | 36 ft | 2 kts | 32° |
| 2026-05-08 07:16 | 19.09251 | 72.87044 | 35 ft | 2 kts | 33° |
| 2026-05-08 07:17 | 19.09238 | 72.87035 | 35 ft | 2 kts | 53° |
| 2026-05-08 07:17 | 19.09233 | 72.87021 | 35 ft | 0 kts | 90° |
| 2026-05-08 07:17 | 19.09234 | 72.87015 | 36 ft | 1 kts | 96° |
| 2026-05-08 07:17 | 19.09234 | 72.87013 | 36 ft | 0 kts | 95° |
| 2026-05-08 07:19 | 19.09233 | 72.87024 | 35 ft | 3 kts | 93° |
| 2026-05-08 07:19 | 19.09233 | 72.87060 | 34 ft | 6 kts | 90° |
| 2026-05-08 07:19 | 19.09234 | 72.87119 | 34 ft | 9 kts | 89° |
| 2026-05-08 07:19 | 19.09234 | 72.87165 | 34 ft | 10 kts | 89° |
| 2026-05-08 07:20 | 19.09204 | 72.87256 | 34 ft | 11 kts | 155° |
| 2026-05-08 07:20 | 19.09145 | 72.87264 | 30 ft | 14 kts | 180° |
| 2026-05-08 07:20 | 19.09049 | 72.87338 | 27 ft | 15 kts | 90° |
| 2026-05-08 07:20 | 19.09051 | 72.87447 | 28 ft | 14 kts | 89° |
| 2026-05-08 07:21 | 19.09052 | 72.87556 | 29 ft | 15 kts | 89° |
| 2026-05-08 07:21 | 19.09054 | 72.87669 | 31 ft | 15 kts | 89° |
| 2026-05-08 07:21 | 19.09055 | 72.87790 | 33 ft | 17 kts | 89° |
| 2026-05-08 07:21 | 19.09057 | 72.87913 | 35 ft | 15 kts | 89° |
| 2026-05-08 07:22 | 19.09058 | 72.87985 | 38 ft | 13 kts | 88° |
| 2026-05-08 07:22 | 19.08991 | 72.88055 | 40 ft | 11 kts | 180° |
| 2026-05-08 07:22 | 19.08914 | 72.88035 | 40 ft | 11 kts | 215° |
| 2026-05-08 07:22 | 19.08889 | 72.87984 | 39 ft | 12 kts | 264° |
| 2026-05-08 07:23 | 19.08884 | 72.87795 | 34 ft | 44 kts | 269° |
| 2026-05-08 07:23 | 19.08880 | 72.87456 | 27 ft | 93 kts | 269° |
| 2026-05-08 07:23 | 19.08867 | 72.86539 | 32 ft | 154 kts | 269° |
| 2026-05-08 07:23 | 19.08848 | 72.84801 | 425 ft | 186 kts | 270° |
| 2026-05-08 07:24 | 19.08859 | 72.83437 | 1050 ft | 190 kts | 270° |
| 2026-05-08 07:24 | 19.08843 | 72.82028 | 1741 ft | 193 kts | 269° |
| 2026-05-08 07:24 | 19.08820 | 72.81096 | 2083 ft | 192 kts | 269° |
| 2026-05-08 07:24 | 19.08791 | 72.79630 | 2227 ft | 204 kts | 269° |
| 2026-05-08 07:25 | 19.08761 | 72.78089 | 2380 ft | 216 kts | 269° |
| 2026-05-08 07:25 | 19.08738 | 72.76468 | 2561 ft | 228 kts | 269° |
| 2026-05-08 07:25 | 19.09706 | 72.72611 | 3026 ft | 256 kts | 319° |
| 2026-05-08 07:26 | 19.11329 | 72.71757 | 3194 ft | 269 kts | 352° |
| 2026-05-08 07:26 | 19.12585 | 72.71796 | 3377 ft | 274 kts | 15° |
| 2026-05-08 07:26 | 19.14687 | 72.73239 | 3927 ft | 277 kts | 44° |
| 2026-05-08 07:26 | 19.16260 | 72.74384 | 4371 ft | 279 kts | 18° |
| 2026-05-08 07:27 | 19.18176 | 72.74655 | 4815 ft | 280 kts | 360° |
| 2026-05-08 07:27 | 19.20109 | 72.74580 | 5302 ft | 281 kts | 356° |
| 2026-05-08 07:27 | 19.22090 | 72.74438 | 5754 ft | 284 kts | 356° |
| 2026-05-08 07:27 | 19.23407 | 72.74338 | 6059 ft | 285 kts | 356° |
| 2026-05-08 07:28 | 19.25308 | 72.74208 | 6533 ft | 286 kts | 356° |
| 2026-05-08 07:28 | 19.27978 | 72.74050 | 7153 ft | 288 kts | 357° |
| 2026-05-08 07:28 | 19.29317 | 72.74016 | 7451 ft | 289 kts | 1° |
| 2026-05-08 07:28 | 19.31342 | 72.74132 | 7900 ft | 290 kts | 6° |
| 2026-05-08 07:29 | 19.33323 | 72.74406 | 8342 ft | 292 kts | 8° |
| 2026-05-08 07:29 | 19.35362 | 72.74723 | 8792 ft | 294 kts | 8° |
| 2026-05-08 07:29 | 19.37376 | 72.75039 | 9229 ft | 296 kts | 8° |
| 2026-05-08 07:29 | 19.40109 | 72.75466 | 9814 ft | 298 kts | 8° |
| 2026-05-08 07:30 | 19.41463 | 72.75676 | 10095 ft | 299 kts | 8° |
| 2026-05-08 07:30 | 19.43557 | 72.76000 | 10321 ft | 309 kts | 8° |
| 2026-05-08 07:30 | 19.45731 | 72.76335 | 10515 ft | 319 kts | 8° |
| 2026-05-08 07:30 | 19.47959 | 72.76678 | 10704 ft | 329 kts | 8° |
| 2026-05-08 07:31 | 19.50260 | 72.77033 | 10885 ft | 339 kts | 8° |
| 2026-05-08 07:31 | 19.52618 | 72.77396 | 11078 ft | 348 kts | 8° |
| 2026-05-08 07:31 | 19.55021 | 72.77765 | 11406 ft | 352 kts | 8° |
| 2026-05-08 07:31 | 19.57460 | 72.78140 | 11814 ft | 353 kts | 8° |
| 2026-05-08 07:32 | 19.59893 | 72.78514 | 12211 ft | 355 kts | 8° |
| 2026-05-08 07:32 | 19.62333 | 72.78890 | 12597 ft | 357 kts | 8° |
| 2026-05-08 07:32 | 19.64814 | 72.79272 | 12984 ft | 359 kts | 8° |
| 2026-05-08 07:32 | 19.67286 | 72.79652 | 13365 ft | 361 kts | 8° |
| 2026-05-08 07:33 | 19.70613 | 72.80165 | 13869 ft | 364 kts | 9° |
| 2026-05-08 07:33 | 19.72282 | 72.80422 | 14119 ft | 365 kts | 9° |
| 2026-05-08 07:33 | 19.74802 | 72.80810 | 14493 ft | 367 kts | 9° |
| 2026-05-08 07:33 | 19.77314 | 72.81198 | 14861 ft | 369 kts | 9° |
| 2026-05-08 07:34 | 19.79850 | 72.81589 | 15226 ft | 371 kts | 9° |
| 2026-05-08 07:34 | 19.82427 | 72.81986 | 15591 ft | 373 kts | 9° |
| 2026-05-08 07:34 | 19.85851 | 72.82515 | 16068 ft | 376 kts | 9° |
| 2026-05-08 07:34 | 19.87583 | 72.82782 | 16306 ft | 377 kts | 9° |
| 2026-05-08 07:35 | 19.91050 | 72.83318 | 16774 ft | 380 kts | 9° |
| 2026-05-08 07:35 | 19.92788 | 72.83586 | 17005 ft | 381 kts | 9° |
| 2026-05-08 07:35 | 19.95390 | 72.83988 | 17346 ft | 383 kts | 9° |
| 2026-05-08 07:35 | 19.98923 | 72.84534 | 17800 ft | 386 kts | 9° |
| 2026-05-08 07:36 | 20.01579 | 72.84944 | 18135 ft | 388 kts | 9° |
| 2026-05-08 07:36 | 20.03352 | 72.85218 | 18356 ft | 389 kts | 9° |
| 2026-05-08 07:36 | 20.06957 | 72.85776 | 18798 ft | 391 kts | 9° |
| 2026-05-08 07:36 | 20.08756 | 72.86052 | 19014 ft | 393 kts | 8° |
| 2026-05-08 07:37 | 20.11452 | 72.86416 | 19335 ft | 395 kts | 7° |
| 2026-05-08 07:37 | 20.15106 | 72.86871 | 19764 ft | 397 kts | 7° |
| 2026-05-08 07:37 | 20.16948 | 72.87100 | 19978 ft | 399 kts | 7° |
| 2026-05-08 07:37 | 20.19692 | 72.87444 | 20296 ft | 401 kts | 7° |
| 2026-05-08 07:38 | 20.22475 | 72.87796 | 20615 ft | 403 kts | 7° |
| 2026-05-08 07:38 | 20.25258 | 72.88149 | 20931 ft | 404 kts | 7° |
| 2026-05-08 07:38 | 20.28960 | 72.88621 | 21347 ft | 407 kts | 7° |
| 2026-05-08 07:38 | 20.30849 | 72.88863 | 21560 ft | 408 kts | 7° |
| 2026-05-08 07:39 | 20.33690 | 72.89226 | 21872 ft | 410 kts | 7° |
| 2026-05-08 07:39 | 20.36509 | 72.89587 | 22179 ft | 412 kts | 7° |
| 2026-05-08 07:39 | 20.39354 | 72.89951 | 22487 ft | 414 kts | 7° |
| 2026-05-08 07:39 | 20.43180 | 72.90441 | 22895 ft | 417 kts | 7° |
| 2026-05-08 07:40 | 20.45101 | 72.90688 | 23099 ft | 418 kts | 7° |
| 2026-05-08 07:40 | 20.47959 | 72.91054 | 23398 ft | 420 kts | 7° |
| 2026-05-08 07:40 | 20.51849 | 72.91554 | 23800 ft | 422 kts | 7° |
| 2026-05-08 07:40 | 20.53763 | 72.91799 | 23995 ft | 424 kts | 7° |
| 2026-05-08 07:41 | 20.56677 | 72.92173 | 24290 ft | 426 kts | 7° |
| 2026-05-08 07:41 | 20.59631 | 72.92552 | 24587 ft | 427 kts | 7° |
| 2026-05-08 07:41 | 20.62565 | 72.92930 | 24878 ft | 429 kts | 7° |
| 2026-05-08 07:41 | 20.65542 | 72.93312 | 25171 ft | 431 kts | 7° |
| 2026-05-08 07:42 | 20.69496 | 72.93821 | 25555 ft | 434 kts | 7° |
| 2026-05-08 07:42 | 20.72502 | 72.94209 | 25846 ft | 435 kts | 7° |
| 2026-05-08 07:42 | 20.74500 | 72.94456 | 26034 ft | 437 kts | 6° |
| 2026-05-08 07:42 | 20.77561 | 72.94698 | 26320 ft | 439 kts | 3° |
| 2026-05-08 07:43 | 20.80603 | 72.94825 | 26604 ft | 440 kts | 2° |
| 2026-05-08 07:43 | 20.83649 | 72.94931 | 26880 ft | 442 kts | 2° |
| 2026-05-08 07:43 | 20.87745 | 72.95071 | 27240 ft | 445 kts | 2° |
| 2026-05-08 07:43 | 20.89841 | 72.95144 | 27419 ft | 446 kts | 2° |
| 2026-05-08 07:44 | 20.92928 | 72.95253 | 27680 ft | 447 kts | 2° |
| 2026-05-08 07:44 | 20.96038 | 72.95365 | 27935 ft | 449 kts | 2° |
| 2026-05-08 07:44 | 21.00169 | 72.95516 | 28246 ft | 452 kts | 2° |
| 2026-05-08 07:44 | 21.02298 | 72.95596 | 28384 ft | 453 kts | 0° |
| 2026-05-08 07:45 | 21.05399 | 72.95717 | 28752 ft | 451 kts | 0° |
| 2026-05-08 07:45 | 21.08537 | 72.95830 | 29177 ft | 448 kts | 0° |
| 2026-05-08 07:45 | 21.11626 | 72.95940 | 29484 ft | 447 kts | 1° |
| 2026-05-08 07:45 | 21.14735 | 72.96180 | 29808 ft | 446 kts | 4° |
| 2026-05-08 07:46 | 21.17816 | 72.96647 | 30120 ft | 446 kts | 8° |
| 2026-05-08 07:46 | 21.20824 | 72.97335 | 30394 ft | 447 kts | 12° |
| 2026-05-08 07:46 | 21.23819 | 72.98261 | 30649 ft | 448 kts | 16° |
| 2026-05-08 07:46 | 21.26733 | 72.99343 | 30898 ft | 448 kts | 18° |
| 2026-05-08 07:47 | 21.30639 | 73.00854 | 31225 ft | 449 kts | 18° |
| 2026-05-08 07:47 | 21.32584 | 73.01609 | 31383 ft | 449 kts | 18° |
| 2026-05-08 07:47 | 21.35539 | 73.02757 | 31630 ft | 448 kts | 18° |
| 2026-05-08 07:47 | 21.38458 | 73.03889 | 31866 ft | 448 kts | 18° |
| 2026-05-08 07:48 | 21.41398 | 73.05026 | 32096 ft | 448 kts | 18° |
| 2026-05-08 07:48 | 21.44293 | 73.06147 | 32314 ft | 448 kts | 18° |
| 2026-05-08 07:48 | 21.47253 | 73.07291 | 32533 ft | 448 kts | 18° |
| 2026-05-08 07:48 | 21.50161 | 73.08416 | 32741 ft | 448 kts | 18° |
| 2026-05-08 07:49 | 21.53079 | 73.09544 | 32943 ft | 449 kts | 18° |
| 2026-05-08 07:49 | 21.56025 | 73.10684 | 33136 ft | 449 kts | 18° |
| 2026-05-08 07:49 | 21.58970 | 73.11823 | 33304 ft | 450 kts | 18° |
| 2026-05-08 07:49 | 21.61916 | 73.12964 | 33458 ft | 451 kts | 18° |
| 2026-05-08 07:50 | 21.64839 | 73.14096 | 33605 ft | 452 kts | 18° |
| 2026-05-08 07:50 | 21.67776 | 73.15234 | 33750 ft | 453 kts | 18° |
| 2026-05-08 07:50 | 21.70781 | 73.16399 | 33897 ft | 454 kts | 18° |
| 2026-05-08 07:50 | 21.73729 | 73.17542 | 34036 ft | 455 kts | 18° |
| 2026-05-08 07:51 | 21.76688 | 73.18690 | 34175 ft | 456 kts | 18° |
| 2026-05-08 07:51 | 21.79709 | 73.19863 | 34321 ft | 457 kts | 18° |
| 2026-05-08 07:51 | 21.82680 | 73.21017 | 34462 ft | 457 kts | 18° |
| 2026-05-08 07:51 | 21.85644 | 73.22169 | 34605 ft | 458 kts | 18° |
| 2026-05-08 07:52 | 21.88663 | 73.23343 | 34749 ft | 458 kts | 18° |
| 2026-05-08 07:52 | 21.91657 | 73.24507 | 34888 ft | 459 kts | 18° |
| 2026-05-08 07:52 | 21.94637 | 73.25666 | 34923 ft | 460 kts | 18° |
| 2026-05-08 07:53 | 22.00662 | 73.28012 | 34935 ft | 460 kts | 18° |
| 2026-05-08 07:53 | 22.06685 | 73.30360 | 34937 ft | 460 kts | 18° |
| 2026-05-08 07:54 | 22.12678 | 73.32696 | 34938 ft | 460 kts | 18° |
| 2026-05-08 07:54 | 22.18697 | 73.35035 | 34938 ft | 460 kts | 18° |
| 2026-05-08 07:55 | 22.24688 | 73.37372 | 34938 ft | 460 kts | 18° |
| 2026-05-08 07:55 | 22.30709 | 73.39726 | 34938 ft | 460 kts | 18° |
| 2026-05-08 07:56 | 22.36708 | 73.42075 | 34938 ft | 460 kts | 18° |
| 2026-05-08 07:56 | 22.42688 | 73.44419 | 34938 ft | 460 kts | 18° |
| 2026-05-08 07:57 | 22.48703 | 73.46779 | 34938 ft | 460 kts | 18° |
| 2026-05-08 07:57 | 22.54693 | 73.49132 | 34938 ft | 460 kts | 18° |
| 2026-05-08 07:58 | 22.60700 | 73.51494 | 34938 ft | 460 kts | 18° |
| 2026-05-08 07:58 | 22.67694 | 73.54248 | 34938 ft | 460 kts | 18° |
| 2026-05-08 07:59 | 22.72682 | 73.56216 | 34938 ft | 460 kts | 18° |
| 2026-05-08 07:59 | 22.78704 | 73.58591 | 34938 ft | 460 kts | 18° |
| 2026-05-08 08:00 | 22.85691 | 73.61337 | 34938 ft | 460 kts | 18° |
| 2026-05-08 08:00 | 22.90702 | 73.63311 | 34938 ft | 460 kts | 18° |
| 2026-05-08 08:01 | 22.96696 | 73.65681 | 34937 ft | 459 kts | 18° |
| 2026-05-08 08:01 | 23.02690 | 73.68082 | 34938 ft | 459 kts | 18° |
| 2026-05-08 08:02 | 23.08642 | 73.70454 | 34938 ft | 458 kts | 18° |
| 2026-05-08 08:02 | 23.14634 | 73.72825 | 34938 ft | 458 kts | 18° |
| 2026-05-08 08:03 | 23.20600 | 73.75183 | 34937 ft | 458 kts | 18° |
| 2026-05-08 08:03 | 23.26589 | 73.77557 | 34937 ft | 458 kts | 18° |
| 2026-05-08 08:04 | 23.32579 | 73.79937 | 34935 ft | 458 kts | 18° |
| 2026-05-08 08:04 | 23.38570 | 73.82319 | 34887 ft | 458 kts | 18° |
| 2026-05-08 08:05 | 23.44507 | 73.84682 | 34852 ft | 458 kts | 18° |
| 2026-05-08 08:05 | 23.50511 | 73.87076 | 34837 ft | 458 kts | 18° |
| 2026-05-08 08:06 | 23.56499 | 73.89465 | 34830 ft | 459 kts | 18° |
| 2026-05-08 08:06 | 23.62458 | 73.91843 | 34828 ft | 458 kts | 18° |
| 2026-05-08 08:07 | 23.68389 | 73.94215 | 34828 ft | 459 kts | 18° |
| 2026-05-08 08:07 | 23.74372 | 73.96608 | 34827 ft | 458 kts | 18° |
| 2026-05-08 08:08 | 23.80349 | 73.99002 | 34828 ft | 459 kts | 18° |
| 2026-05-08 08:08 | 23.86340 | 74.01404 | 34827 ft | 459 kts | 18° |
| 2026-05-08 08:09 | 23.92335 | 74.03809 | 34828 ft | 459 kts | 18° |
| 2026-05-08 08:09 | 23.98289 | 74.06203 | 34828 ft | 458 kts | 18° |
| 2026-05-08 08:10 | 24.04270 | 74.08607 | 34828 ft | 459 kts | 18° |
| 2026-05-08 08:10 | 24.10269 | 74.11011 | 34827 ft | 459 kts | 18° |
| 2026-05-08 08:11 | 24.16203 | 74.13385 | 34827 ft | 459 kts | 18° |
| 2026-05-08 08:11 | 24.22208 | 74.15794 | 34828 ft | 459 kts | 18° |
| 2026-05-08 08:12 | 24.28188 | 74.18201 | 34828 ft | 459 kts | 18° |
| 2026-05-08 08:12 | 24.34150 | 74.20605 | 34830 ft | 459 kts | 18° |
| 2026-05-08 08:13 | 24.40093 | 74.23008 | 34834 ft | 459 kts | 18° |
| 2026-05-08 08:13 | 24.46056 | 74.25420 | 34838 ft | 459 kts | 18° |
| 2026-05-08 08:14 | 24.52056 | 74.27851 | 34844 ft | 459 kts | 18° |
| 2026-05-08 08:14 | 24.58003 | 74.30264 | 34854 ft | 459 kts | 18° |
| 2026-05-08 08:15 | 24.63952 | 74.32680 | 34865 ft | 459 kts | 18° |
| 2026-05-08 08:15 | 24.69949 | 74.35118 | 34874 ft | 458 kts | 18° |
| 2026-05-08 08:16 | 24.75921 | 74.37549 | 34878 ft | 458 kts | 18° |
| 2026-05-08 08:16 | 24.81880 | 74.39977 | 34880 ft | 459 kts | 18° |
| 2026-05-08 08:17 | 24.88874 | 74.42829 | 34879 ft | 458 kts | 18° |
| 2026-05-08 08:17 | 24.93797 | 74.44840 | 34881 ft | 459 kts | 18° |
| 2026-05-08 08:18 | 24.99752 | 74.47277 | 34881 ft | 459 kts | 17° |
| 2026-05-08 08:18 | 25.05777 | 74.49749 | 34880 ft | 460 kts | 17° |